createdAt,value
2019-01-09T00:00:26.091Z,95.35
2019-01-09T00:01:26.094Z,95.76
2019-01-09T00:02:26.049Z,96.28
2019-01-09T00:03:26.069Z,96.39
2019-01-09T00:04:26.044Z,95.97
2019-01-09T00:05:28.471Z,96.59
2019-01-09T00:06:26.015Z,95.97
2019-01-09T00:07:26.004Z,95.35
2019-01-09T00:08:26.040Z,95.14
2019-01-09T00:09:25.986Z,95.14
2019-01-09T00:10:25.958Z,95.14
2019-01-09T00:11:25.955Z,95.35
2019-01-09T00:12:25.954Z,96.14
2019-01-09T00:13:25.970Z,95.66
2019-01-09T00:14:25.918Z,95.66
2019-01-09T00:15:25.915Z,96.18
2019-01-09T00:16:25.894Z,96.08
2019-01-09T00:17:25.930Z,95.14
2019-01-09T00:18:25.902Z,96.18
2019-01-09T00:19:25.862Z,95.35
2019-01-09T00:20:25.849Z,95.66
2019-01-09T00:21:25.841Z,96.28
2019-01-09T00:22:25.830Z,95.76
2019-01-09T00:23:25.838Z,95.66
2019-01-09T00:24:25.817Z,95.87
2019-01-09T00:25:25.795Z,95.25
2019-01-09T00:26:25.780Z,95.35
2019-01-09T00:27:25.781Z,95.66
2019-01-09T00:28:25.999Z,95.97
2019-01-09T00:29:25.763Z,96.08
2019-01-09T00:30:25.769Z,95.97
2019-01-09T00:31:25.724Z,96.08
2019-01-09T00:32:25.720Z,94.93
2019-01-09T00:33:25.732Z,95.14
2019-01-09T00:34:25.704Z,95.56
2019-01-09T00:35:25.702Z,96.28
2019-01-09T00:36:25.674Z,96.22
2019-01-09T00:37:25.663Z,96.12
2019-01-09T00:38:25.715Z,96.08
2019-01-09T00:39:25.639Z,95.76
2019-01-09T00:40:25.632Z,96.08
2019-01-09T00:41:25.614Z,95.76
2019-01-09T00:42:25.626Z,95.14
2019-01-09T00:43:25.594Z,95.25
2019-01-09T00:44:25.598Z,95.03
2019-01-09T00:45:25.580Z,96.39
2019-01-09T00:46:25.574Z,95.45
2019-01-09T00:47:25.556Z,95.25
2019-01-09T00:48:25.538Z,95.45
2019-01-09T00:49:25.547Z,95.45
2019-01-09T00:50:25.513Z,95.29
2019-01-09T00:51:25.507Z,95.29
2019-01-09T00:52:25.507Z,95.25
2019-01-09T00:53:25.485Z,95.35
2019-01-09T00:54:25.493Z,95.25
2019-01-09T00:55:25.471Z,94.98
2019-01-09T00:56:25.442Z,95.03
2019-01-09T00:57:25.449Z,95.25
2019-01-09T00:58:25.444Z,94.93
2019-01-09T00:59:25.447Z,95.08
2019-01-09T01:00:25.401Z,94.72
2019-01-09T01:01:25.397Z,94.93
2019-01-09T01:02:25.380Z,94.93
2019-01-09T01:03:25.384Z,95.35
2019-01-09T01:04:25.386Z,95.14
2019-01-09T01:05:25.343Z,95.50
2019-01-09T01:06:25.344Z,95.35
2019-01-09T01:07:25.326Z,94.87
2019-01-09T01:08:25.313Z,95.18
2019-01-09T01:09:25.384Z,95.18
2019-01-09T01:10:25.291Z,95.87
2019-01-09T01:11:25.286Z,95.56
2019-01-09T01:12:25.271Z,95.70
2019-01-09T01:13:25.257Z,95.56
2019-01-09T01:14:25.266Z,95.45
2019-01-09T01:15:25.243Z,95.35
2019-01-09T01:16:25.224Z,95.29
2019-01-09T01:17:25.217Z,95.39
2019-01-09T01:18:25.207Z,95.18
2019-01-09T01:19:25.229Z,95.50
2019-01-09T01:20:25.177Z,95.70
2019-01-09T01:21:25.166Z,95.18
2019-01-09T01:22:25.156Z,95.50
2019-01-09T01:23:25.145Z,95.18
2019-01-09T01:24:25.162Z,95.45
2019-01-09T01:25:25.126Z,95.29
2019-01-09T01:26:25.197Z,96.33
2019-01-09T01:27:25.105Z,96.12
2019-01-09T01:28:26.422Z,95.91
2019-01-09T01:29:25.084Z,96.22
2019-01-09T01:30:25.094Z,96.01
2019-01-09T01:31:25.063Z,96.01
2019-01-09T01:32:25.065Z,95.87
2019-01-09T01:33:25.040Z,96.01
2019-01-09T01:34:25.022Z,96.43
2019-01-09T01:35:25.033Z,95.56
2019-01-09T01:36:25.000Z,96.39
2019-01-09T01:37:24.984Z,95.08
2019-01-09T01:38:25.014Z,95.03
2019-01-09T01:39:24.965Z,95.35
2019-01-09T01:40:24.974Z,95.25
2019-01-09T01:41:24.950Z,95.45
2019-01-09T01:42:24.937Z,95.39
2019-01-09T01:43:24.924Z,95.35
2019-01-09T01:44:24.927Z,95.25
2019-01-09T01:45:24.946Z,95.56
2019-01-09T01:46:24.886Z,95.56
2019-01-09T01:47:24.884Z,94.93
2019-01-09T01:48:24.866Z,94.62
2019-01-09T01:49:24.863Z,95.56
2019-01-09T01:50:24.866Z,95.35
2019-01-09T01:51:24.833Z,95.14
2019-01-09T01:52:24.827Z,95.14
2019-01-09T01:53:24.810Z,95.56
2019-01-09T01:54:24.807Z,94.93
2019-01-09T01:55:24.813Z,95.35
2019-01-09T01:56:24.784Z,96.01
2019-01-09T01:57:24.765Z,96.39
2019-01-09T01:58:24.753Z,95.56
2019-01-09T01:59:24.743Z,95.35
2019-01-09T02:00:24.745Z,94.51
2019-01-09T02:01:24.734Z,93.48
2019-01-09T02:02:24.712Z,94.31
2019-01-09T02:03:24.698Z,95.14
2019-01-09T02:04:24.692Z,95.25
2019-01-09T02:05:24.703Z,94.66
2019-01-09T02:06:24.664Z,94.82
2019-01-09T02:07:24.652Z,95.35
2019-01-09T02:08:24.650Z,94.72
2019-01-09T02:09:24.637Z,95.25
2019-01-09T02:10:24.637Z,95.14
2019-01-09T02:11:24.636Z,95.18
2019-01-09T02:12:24.608Z,95.18
2019-01-09T02:13:24.598Z,94.45
2019-01-09T02:14:24.575Z,94.24
2019-01-09T02:15:24.561Z,94.66
2019-01-09T02:16:24.576Z,94.66
2019-01-09T02:17:24.548Z,95.18
2019-01-09T02:18:24.541Z,95.18
2019-01-09T02:19:24.523Z,95.08
2019-01-09T02:20:24.509Z,95.29
2019-01-09T02:21:25.015Z,95.18
2019-01-09T02:22:24.489Z,95.39
2019-01-09T02:23:24.488Z,95.18
2019-01-09T02:24:24.464Z,95.50
2019-01-09T02:25:24.452Z,94.45
2019-01-09T02:26:24.462Z,95.08
2019-01-09T02:27:24.439Z,95.18
2019-01-09T02:28:24.418Z,94.76
2019-01-09T02:29:24.415Z,94.66
2019-01-09T02:30:24.398Z,95.08
2019-01-09T02:31:24.411Z,94.76
2019-01-09T02:32:24.381Z,95.50
2019-01-09T02:33:24.367Z,95.18
2019-01-09T02:34:24.364Z,95.08
2019-01-09T02:35:24.353Z,94.87
2019-01-09T02:36:24.357Z,94.98
2019-01-09T02:37:24.330Z,95.18
2019-01-09T02:38:24.308Z,94.66
2019-01-09T02:39:24.300Z,95.08
2019-01-09T02:40:24.290Z,94.76
2019-01-09T02:41:24.296Z,95.39
2019-01-09T02:42:24.265Z,94.56
2019-01-09T02:43:24.251Z,94.56
2019-01-09T02:44:32.222Z,94.35
2019-01-09T02:45:25.238Z,94.66
2019-01-09T02:46:24.247Z,95.39
2019-01-09T02:47:24.209Z,94.35
2019-01-09T02:48:24.197Z,94.56
2019-01-09T02:49:24.192Z,95.08
2019-01-09T02:50:24.177Z,94.82
2019-01-09T02:51:24.195Z,94.87
2019-01-09T02:52:24.158Z,95.18
2019-01-09T02:53:24.173Z,94.87
2019-01-09T02:54:24.129Z,95.39
2019-01-09T02:55:24.129Z,95.29
2019-01-09T02:56:24.114Z,94.98
2019-01-09T02:57:24.678Z,95.29
2019-01-09T02:58:24.084Z,94.87
2019-01-09T02:59:24.077Z,94.56
2019-01-09T03:00:24.068Z,94.24
2019-01-09T03:01:24.053Z,94.45
2019-01-09T03:02:24.060Z,94.87
2019-01-09T03:03:24.031Z,95.18
2019-01-09T03:04:24.020Z,95.18
2019-01-09T03:05:24.011Z,95.39
2019-01-09T03:06:23.991Z,95.50
2019-01-09T03:07:24.005Z,95.08
2019-01-09T03:08:23.981Z,95.29
2019-01-09T03:09:23.973Z,95.29
2019-01-09T03:10:23.950Z,94.66
2019-01-09T03:11:23.939Z,94.45
2019-01-09T03:12:23.951Z,94.66
2019-01-09T03:13:23.918Z,94.45
2019-01-09T03:14:23.912Z,94.45
2019-01-09T03:15:23.911Z,94.45
2019-01-09T03:16:23.887Z,94.35
2019-01-09T03:17:23.898Z,93.93
2019-01-09T03:18:23.863Z,94.56
2019-01-09T03:19:23.851Z,94.24
2019-01-09T03:20:23.864Z,94.45
2019-01-09T03:21:23.832Z,94.76
2019-01-09T03:22:23.850Z,94.45
2019-01-09T03:23:23.815Z,94.56
2019-01-09T03:24:23.798Z,94.24
2019-01-09T03:25:23.791Z,94.45
2019-01-09T03:26:23.790Z,94.98
2019-01-09T03:27:23.794Z,94.66
2019-01-09T03:28:23.752Z,94.56
2019-01-09T03:29:23.746Z,93.93
2019-01-09T03:30:23.742Z,93.52
2019-01-09T03:31:23.715Z,93.93
2019-01-09T03:32:23.737Z,94.56
2019-01-09T03:33:23.707Z,94.14
2019-01-09T03:34:23.679Z,93.62
2019-01-09T03:35:23.681Z,93.52
2019-01-09T03:36:32.346Z,93.83
2019-01-09T03:37:24.687Z,93.83
2019-01-09T03:38:23.647Z,93.73
2019-01-09T03:39:23.633Z,93.73
2019-01-09T03:40:23.617Z,94.14
2019-01-09T03:41:23.608Z,94.35
2019-01-09T03:42:23.602Z,93.48
2019-01-09T03:43:23.611Z,93.52
2019-01-09T03:44:23.575Z,94.04
2019-01-09T03:45:23.561Z,94.87
2019-01-09T03:46:23.550Z,94.66
2019-01-09T03:47:23.541Z,93.41
2019-01-09T03:48:23.549Z,93.73
2019-01-09T03:49:23.525Z,93.52
2019-01-09T03:50:23.510Z,94.24
2019-01-09T03:51:23.500Z,95.02
2019-01-09T03:52:23.499Z,94.45
2019-01-09T03:53:23.498Z,93.04
2019-01-09T03:54:23.464Z,93.66
2019-01-09T03:55:23.456Z,94.14
2019-01-09T03:56:23.441Z,94.45
2019-01-09T03:57:23.426Z,94.45
2019-01-09T03:58:23.434Z,94.35
2019-01-09T03:59:23.412Z,94.04
2019-01-09T04:00:23.406Z,93.52
2019-01-09T04:01:23.384Z,93.20
2019-01-09T04:02:23.371Z,93.41
2019-01-09T04:03:24.422Z,93.41
2019-01-09T04:04:23.350Z,93.52
2019-01-09T04:05:23.342Z,93.31
2019-01-09T04:06:23.347Z,93.73
2019-01-09T04:07:23.315Z,93.10
2019-01-09T04:08:23.326Z,93.10
2019-01-09T04:09:23.299Z,93.20
2019-01-09T04:10:23.287Z,93.20
2019-01-09T04:11:23.282Z,93.20
2019-01-09T04:12:23.283Z,92.89
2019-01-09T04:13:23.268Z,92.58
2019-01-09T04:14:23.239Z,93.10
2019-01-09T04:15:23.229Z,93.41
2019-01-09T04:16:23.214Z,92.58
2019-01-09T04:17:23.219Z,92.99
2019-01-09T04:18:23.230Z,92.58
2019-01-09T04:19:23.192Z,92.79
2019-01-09T04:20:23.173Z,92.79
2019-01-09T04:21:23.165Z,92.37
2019-01-09T04:22:23.160Z,92.27
2019-01-09T04:23:23.185Z,92.16
2019-01-09T04:24:23.127Z,92.47
2019-01-09T04:25:23.116Z,92.37
2019-01-09T04:26:23.109Z,93.20
2019-01-09T04:27:23.095Z,92.58
2019-01-09T04:28:23.096Z,92.99
2019-01-09T04:29:23.083Z,92.79
2019-01-09T04:30:23.062Z,92.37
2019-01-09T04:31:23.048Z,92.37
2019-01-09T04:32:23.041Z,92.27
2019-01-09T04:33:23.062Z,92.37
2019-01-09T04:34:23.014Z,92.02
2019-01-09T04:35:23.009Z,92.06
2019-01-09T04:36:22.993Z,92.06
2019-01-09T04:37:22.984Z,92.02
2019-01-09T04:38:22.997Z,91.96
2019-01-09T04:39:22.969Z,91.85
2019-01-09T04:40:22.954Z,92.06
2019-01-09T04:41:22.960Z,91.53
2019-01-09T04:42:22.926Z,91.53
2019-01-09T04:43:22.941Z,92.27
2019-01-09T04:44:22.916Z,92.27
2019-01-09T04:45:22.914Z,91.64
2019-01-09T04:46:22.894Z,91.96
2019-01-09T04:47:22.883Z,91.85
2019-01-09T04:48:22.899Z,91.85
2019-01-09T04:49:22.851Z,91.85
2019-01-09T04:50:22.842Z,92.27
2019-01-09T04:51:22.835Z,92.27
2019-01-09T04:52:22.894Z,92.37
2019-01-09T04:53:22.837Z,92.47
2019-01-09T04:54:22.796Z,91.96
2019-01-09T04:55:22.780Z,91.96
2019-01-09T04:56:22.774Z,92.37
2019-01-09T04:57:22.759Z,92.27
2019-01-09T04:58:22.770Z,92.27
2019-01-09T04:59:22.771Z,92.68
2019-01-09T05:00:22.736Z,91.96
2019-01-09T05:01:22.723Z,92.27
2019-01-09T05:02:22.708Z,92.47
2019-01-09T05:03:22.702Z,92.58
2019-01-09T05:04:22.707Z,92.79
2019-01-09T05:05:22.672Z,92.58
2019-01-09T05:06:22.667Z,92.68
2019-01-09T05:07:22.653Z,92.37
2019-01-09T05:08:22.637Z,92.89
2019-01-09T05:09:22.650Z,92.37
2019-01-09T05:10:22.622Z,92.89
2019-01-09T05:11:22.614Z,92.47
2019-01-09T05:12:22.599Z,92.27
2019-01-09T05:13:22.590Z,92.89
2019-01-09T05:14:22.595Z,92.79
2019-01-09T05:15:22.569Z,92.27
2019-01-09T05:16:22.548Z,92.27
2019-01-09T05:17:22.639Z,92.47
2019-01-09T05:18:22.528Z,92.27
2019-01-09T05:19:22.534Z,92.68
2019-01-09T05:20:22.507Z,92.68
2019-01-09T05:21:22.492Z,93.41
2019-01-09T05:22:22.488Z,93.31
2019-01-09T05:23:22.475Z,92.79
2019-01-09T05:24:22.565Z,93.10
2019-01-09T05:25:22.450Z,93.62
2019-01-09T05:26:22.438Z,93.62
2019-01-09T05:27:22.432Z,93.20
2019-01-09T05:28:22.414Z,92.95
2019-01-09T05:29:22.423Z,92.89
2019-01-09T05:30:22.403Z,93.31
2019-01-09T05:31:22.385Z,93.20
2019-01-09T05:32:22.380Z,93.56
2019-01-09T05:33:22.376Z,93.10
2019-01-09T05:34:22.377Z,93.56
2019-01-09T05:35:22.355Z,93.10
2019-01-09T05:36:22.336Z,93.20
2019-01-09T05:37:22.325Z,93.41
2019-01-09T05:38:22.323Z,93.20
2019-01-09T05:39:22.320Z,93.24
2019-01-09T05:40:22.281Z,93.83
2019-01-09T05:41:22.274Z,92.93
2019-01-09T05:42:22.259Z,93.41
2019-01-09T05:43:22.255Z,93.77
2019-01-09T05:44:22.280Z,93.46
2019-01-09T05:45:22.236Z,93.77
2019-01-09T05:46:22.217Z,94.29
2019-01-09T05:47:22.206Z,93.56
2019-01-09T05:48:22.196Z,93.46
2019-01-09T05:49:22.193Z,93.14
2019-01-09T05:50:22.197Z,92.58
2019-01-09T05:51:22.161Z,92.72
2019-01-09T05:52:22.153Z,93.66
2019-01-09T05:53:22.141Z,93.56
2019-01-09T05:54:22.129Z,93.62
2019-01-09T05:55:22.135Z,93.66
2019-01-09T05:56:22.118Z,93.66
2019-01-09T05:57:22.098Z,94.29
2019-01-09T05:58:22.093Z,93.66
2019-01-09T05:59:22.081Z,94.60
2019-01-09T06:00:22.091Z,94.49
2019-01-09T06:01:22.050Z,94.29
2019-01-09T06:02:22.037Z,94.39
2019-01-09T06:03:22.036Z,94.49
2019-01-09T06:04:22.019Z,94.29
2019-01-09T06:05:22.034Z,94.60
2019-01-09T06:06:21.994Z,94.49
2019-01-09T06:07:21.987Z,95.02
2019-01-09T06:08:21.983Z,94.92
2019-01-09T06:09:21.961Z,95.43
2019-01-09T06:10:21.966Z,94.92
2019-01-09T06:11:21.934Z,94.81
2019-01-09T06:12:21.939Z,95.02
2019-01-09T06:13:21.915Z,94.81
2019-01-09T06:14:21.903Z,95.43
2019-01-09T06:15:21.922Z,95.23
2019-01-09T06:16:21.891Z,95.02
2019-01-09T06:17:21.874Z,95.64
2019-01-09T06:18:21.867Z,95.43
2019-01-09T06:19:21.848Z,95.12
2019-01-09T06:20:21.855Z,95.33
2019-01-09T06:21:21.856Z,95.75
2019-01-09T06:22:21.823Z,95.64
2019-01-09T06:23:21.811Z,95.43
2019-01-09T06:24:21.798Z,95.85
2019-01-09T06:25:21.794Z,95.12
2019-01-09T06:26:21.797Z,95.33
2019-01-09T06:27:21.764Z,95.43
2019-01-09T06:28:21.758Z,95.43
2019-01-09T06:29:21.751Z,95.33
2019-01-09T06:30:21.724Z,95.85
2019-01-09T06:31:21.734Z,95.17
2019-01-09T06:32:21.706Z,95.95
2019-01-09T06:33:21.696Z,95.43
2019-01-09T06:34:21.686Z,95.33
2019-01-09T06:35:21.685Z,95.64
2019-01-09T06:36:21.692Z,95.54
2019-01-09T06:37:27.322Z,96.42
2019-01-09T06:38:22.639Z,96.42
2019-01-09T06:39:21.630Z,96.21
2019-01-09T06:40:21.621Z,96.52
2019-01-09T06:41:21.657Z,96.21
2019-01-09T06:42:21.598Z,96.52
2019-01-09T06:43:21.588Z,96.62
2019-01-09T06:44:22.848Z,96.73
2019-01-09T06:45:21.565Z,96.31
2019-01-09T06:46:21.590Z,96.73
2019-01-09T06:47:21.553Z,96.73
2019-01-09T06:48:21.528Z,96.94
2019-01-09T06:49:21.521Z,97.14
2019-01-09T06:50:21.530Z,96.62
2019-01-09T06:51:21.504Z,96.83
2019-01-09T06:52:21.508Z,97.04
2019-01-09T06:53:21.482Z,97.46
2019-01-09T06:54:21.505Z,96.52
2019-01-09T06:55:21.463Z,96.73
2019-01-09T06:56:21.455Z,96.94
2019-01-09T06:57:21.436Z,96.94
2019-01-09T06:58:21.427Z,96.73
2019-01-09T06:59:21.421Z,96.42
2019-01-09T07:00:21.395Z,96.94
2019-01-09T07:01:21.407Z,97.40
2019-01-09T07:02:21.404Z,96.94
2019-01-09T07:03:21.365Z,96.62
2019-01-09T07:04:21.375Z,96.73
2019-01-09T07:05:21.341Z,96.62
2019-01-09T07:06:21.327Z,97.09
2019-01-09T07:07:21.337Z,96.77
2019-01-09T07:08:21.308Z,97.56
2019-01-09T07:09:21.296Z,97.40
2019-01-09T07:10:21.298Z,97.81
2019-01-09T07:11:21.279Z,98.02
2019-01-09T07:12:21.283Z,97.81
2019-01-09T07:13:21.252Z,97.71
2019-01-09T07:14:21.251Z,97.71
2019-01-09T07:15:21.236Z,97.71
2019-01-09T07:16:21.234Z,97.40
2019-01-09T07:17:21.288Z,98.34
2019-01-09T07:18:21.202Z,97.71
2019-01-09T07:19:21.184Z,97.30
2019-01-09T07:20:21.181Z,97.92
2019-01-09T07:21:21.178Z,98.02
2019-01-09T07:22:21.176Z,98.02
2019-01-09T07:23:21.140Z,98.02
2019-01-09T07:24:21.134Z,98.50
2019-01-09T07:25:21.116Z,98.50
2019-01-09T07:26:21.113Z,97.88
2019-01-09T07:27:21.119Z,98.29
2019-01-09T07:28:21.086Z,97.35
2019-01-09T07:29:21.075Z,97.25
2019-01-09T07:30:21.069Z,97.56
2019-01-09T07:31:21.064Z,97.35
2019-01-09T07:32:21.058Z,97.88
2019-01-09T07:33:21.061Z,97.77
2019-01-09T07:34:21.021Z,97.67
2019-01-09T07:35:21.006Z,97.14
2019-01-09T07:36:20.998Z,97.04
2019-01-09T07:37:21.011Z,97.67
2019-01-09T07:38:20.997Z,97.77
2019-01-09T07:39:20.973Z,97.25
2019-01-09T07:40:20.954Z,97.98
2019-01-09T07:41:20.948Z,97.56
2019-01-09T07:42:20.960Z,98.08
2019-01-09T07:43:20.928Z,97.98
2019-01-09T07:44:20.917Z,97.56
2019-01-09T07:45:20.929Z,97.19
2019-01-09T07:46:20.892Z,97.04
2019-01-09T07:47:20.951Z,97.98
2019-01-09T07:48:20.869Z,97.77
2019-01-09T07:49:20.881Z,97.56
2019-01-09T07:50:20.847Z,97.46
2019-01-09T07:51:20.835Z,96.94
2019-01-09T07:52:20.855Z,96.94
2019-01-09T07:53:20.810Z,97.04
2019-01-09T07:54:20.803Z,96.62
2019-01-09T07:55:20.799Z,97.46
2019-01-09T07:56:20.782Z,97.50
2019-01-09T07:57:20.783Z,97.09
2019-01-09T07:58:20.769Z,98.19
2019-01-09T07:59:20.756Z,97.71
2019-01-09T08:00:20.735Z,97.30
2019-01-09T08:01:20.718Z,98.02
2019-01-09T08:02:20.716Z,97.98
2019-01-09T08:03:20.723Z,97.88
2019-01-09T08:04:20.691Z,97.71
2019-01-09T08:05:20.679Z,98.02
2019-01-09T08:06:20.673Z,97.30
2019-01-09T08:07:20.658Z,97.61
2019-01-09T08:08:20.672Z,97.61
2019-01-09T08:09:20.636Z,98.13
2019-01-09T08:10:20.621Z,98.34
2019-01-09T08:11:20.607Z,97.40
2019-01-09T08:12:20.597Z,97.50
2019-01-09T08:13:20.619Z,97.61
2019-01-09T08:14:20.591Z,97.61
2019-01-09T08:15:20.569Z,97.61
2019-01-09T08:16:20.557Z,97.81
2019-01-09T08:17:20.555Z,98.23
2019-01-09T08:18:20.558Z,98.23
2019-01-09T08:19:20.532Z,98.23
2019-01-09T08:20:20.506Z,98.23
2019-01-09T08:21:20.498Z,97.65
2019-01-09T08:22:20.488Z,98.38
2019-01-09T08:23:20.497Z,97.92
2019-01-09T08:24:20.656Z,97.65
2019-01-09T08:25:20.466Z,97.71
2019-01-09T08:26:20.441Z,97.81
2019-01-09T08:27:20.562Z,98.13
2019-01-09T08:28:20.482Z,97.50
2019-01-09T08:29:20.414Z,97.81
2019-01-09T08:30:20.411Z,97.92
2019-01-09T08:31:20.423Z,98.02
2019-01-09T08:32:20.392Z,98.34
2019-01-09T08:33:20.380Z,98.13
2019-01-09T08:34:20.613Z,98.02
2019-01-09T08:35:20.467Z,98.23
2019-01-09T08:36:20.337Z,97.71
2019-01-09T08:37:20.344Z,97.81
2019-01-09T08:38:20.309Z,97.50
2019-01-09T08:39:20.323Z,97.81
2019-01-09T08:40:20.286Z,98.18
2019-01-09T08:41:20.282Z,97.92
2019-01-09T08:42:20.274Z,98.13
2019-01-09T08:43:20.259Z,98.13
2019-01-09T08:44:20.288Z,98.34
2019-01-09T08:45:20.232Z,97.92
2019-01-09T08:46:20.232Z,98.34
2019-01-09T08:47:20.250Z,98.13
2019-01-09T08:48:20.214Z,97.71
2019-01-09T08:49:20.217Z,97.92
2019-01-09T08:50:20.189Z,97.92
2019-01-09T08:51:20.175Z,97.71
2019-01-09T08:52:20.162Z,98.23
2019-01-09T08:53:20.157Z,97.71
2019-01-09T08:54:20.257Z,97.81
2019-01-09T08:55:20.167Z,97.61
2019-01-09T08:56:20.131Z,97.71
2019-01-09T08:57:20.104Z,97.81
2019-01-09T08:58:20.087Z,98.02
2019-01-09T08:59:20.135Z,97.97
2019-01-09T09:00:20.076Z,98.02
2019-01-09T09:01:20.075Z,97.97
2019-01-09T09:02:20.058Z,97.75
2019-01-09T09:03:20.039Z,97.44
2019-01-09T09:04:20.049Z,97.44
2019-01-09T09:05:20.009Z,98.07
2019-01-09T09:06:19.997Z,97.40
2019-01-09T09:07:19.991Z,97.65
2019-01-09T09:08:19.976Z,97.86
2019-01-09T09:09:19.991Z,97.34
2019-01-09T09:10:19.996Z,97.97
2019-01-09T09:11:19.943Z,98.38
2019-01-09T09:12:19.932Z,98.34
2019-01-09T09:13:19.921Z,98.13
2019-01-09T09:14:19.913Z,97.75
2019-01-09T09:15:19.919Z,97.50
2019-01-09T09:16:19.886Z,97.81
2019-01-09T09:17:19.873Z,98.13
2019-01-09T09:18:19.867Z,98.34
2019-01-09T09:19:19.854Z,97.81
2019-01-09T09:20:19.861Z,97.92
2019-01-09T09:21:19.831Z,97.88
2019-01-09T09:22:19.822Z,98.34
2019-01-09T09:23:19.807Z,97.56
2019-01-09T09:24:19.807Z,97.98
2019-01-09T09:25:19.804Z,97.88
2019-01-09T09:26:19.777Z,97.56
2019-01-09T09:27:19.766Z,97.61
2019-01-09T09:28:19.751Z,97.35
2019-01-09T09:29:19.746Z,97.35
2019-01-09T09:30:19.756Z,97.25
2019-01-09T09:31:19.727Z,97.88
2019-01-09T09:32:19.752Z,97.77
2019-01-09T09:33:19.695Z,97.04
2019-01-09T09:34:19.686Z,97.67
2019-01-09T09:35:19.697Z,97.46
2019-01-09T09:36:19.658Z,97.67
2019-01-09T09:37:19.658Z,97.56
2019-01-09T09:38:20.675Z,96.73
2019-01-09T09:39:19.635Z,96.73
2019-01-09T09:40:19.664Z,98.14
2019-01-09T09:41:19.654Z,97.62
2019-01-09T09:42:19.606Z,97.72
2019-01-09T09:43:19.586Z,97.83
2019-01-09T09:44:19.596Z,97.41
2019-01-09T09:45:19.582Z,97.31
2019-01-09T09:46:19.560Z,97.20
2019-01-09T09:47:19.543Z,96.58
2019-01-09T09:48:19.533Z,96.89
2019-01-09T09:49:19.522Z,96.69
2019-01-09T09:50:19.533Z,96.89
2019-01-09T09:51:19.492Z,96.89
2019-01-09T09:52:19.482Z,95.95
2019-01-09T09:53:19.500Z,96.26
2019-01-09T09:54:19.462Z,96.37
2019-01-09T09:55:19.458Z,96.69
2019-01-09T09:56:19.464Z,96.79
2019-01-09T09:57:19.433Z,96.48
2019-01-09T09:58:19.432Z,95.39
2019-01-09T09:59:19.409Z,96.16
2019-01-09T10:00:19.402Z,95.50
2019-01-09T10:01:19.404Z,96.33
2019-01-09T10:02:19.374Z,95.50
2019-01-09T10:03:19.375Z,95.91
2019-01-09T10:04:19.357Z,95.91
2019-01-09T10:05:19.340Z,95.97
2019-01-09T10:06:19.357Z,96.43
2019-01-09T10:07:19.323Z,96.49
2019-01-09T10:08:19.311Z,95.39
2019-01-09T10:09:19.295Z,95.50
2019-01-09T10:10:19.290Z,95.70
2019-01-09T10:11:19.299Z,95.91
2019-01-09T10:12:19.262Z,96.12
2019-01-09T10:13:19.256Z,95.18
2019-01-09T10:14:19.261Z,95.29
2019-01-09T10:15:19.230Z,95.70
2019-01-09T10:16:19.237Z,95.39
2019-01-09T10:17:19.212Z,94.98
2019-01-09T10:18:19.199Z,95.56
2019-01-09T10:19:19.188Z,95.87
2019-01-09T10:20:19.179Z,94.98
2019-01-09T10:21:19.183Z,95.14
2019-01-09T10:22:19.237Z,95.25
2019-01-09T10:23:19.184Z,95.62
2019-01-09T10:24:19.124Z,94.37
2019-01-09T10:25:19.123Z,94.47
2019-01-09T10:26:19.127Z,94.57
2019-01-09T10:27:19.103Z,94.37
2019-01-09T10:28:19.088Z,94.68
2019-01-09T10:29:19.098Z,94.78
2019-01-09T10:30:19.069Z,94.20
2019-01-09T10:31:19.079Z,94.37
2019-01-09T10:32:19.045Z,94.57
2019-01-09T10:33:19.033Z,94.26
2019-01-09T10:34:19.027Z,94.47
2019-01-09T10:35:19.008Z,93.74
2019-01-09T10:36:19.021Z,94.26
2019-01-09T10:37:19.002Z,94.37
2019-01-09T10:38:18.973Z,94.37
2019-01-09T10:39:18.967Z,94.57
2019-01-09T10:40:18.948Z,94.31
2019-01-09T10:41:18.941Z,94.41
2019-01-09T10:42:18.948Z,94.26
2019-01-09T10:43:18.919Z,95.03
2019-01-09T10:44:19.098Z,94.93
2019-01-09T10:45:18.901Z,95.03
2019-01-09T10:46:18.887Z,94.62
2019-01-09T10:47:18.921Z,94.82
2019-01-09T10:48:18.868Z,95.35
2019-01-09T10:49:18.857Z,94.31
2019-01-09T10:50:18.904Z,94.82
2019-01-09T10:51:18.913Z,95.03
2019-01-09T10:52:18.918Z,95.14
2019-01-09T10:53:18.811Z,94.41
2019-01-09T10:54:18.805Z,94.06
2019-01-09T10:55:18.828Z,94.62
2019-01-09T10:56:18.773Z,94.51
2019-01-09T10:57:18.795Z,94.51
2019-01-09T10:58:18.768Z,94.62
2019-01-09T10:59:18.738Z,95.35
2019-01-09T11:00:18.737Z,95.30
2019-01-09T11:01:18.718Z,94.78
2019-01-09T11:02:18.721Z,94.26
2019-01-09T11:03:18.695Z,94.16
2019-01-09T11:04:18.685Z,93.89
2019-01-09T11:05:18.677Z,94.68
2019-01-09T11:06:18.662Z,94.26
2019-01-09T11:07:18.671Z,94.47
2019-01-09T11:08:18.650Z,94.47
2019-01-09T11:09:18.626Z,94.37
2019-01-09T11:10:18.616Z,94.26
2019-01-09T11:11:18.605Z,94.47
2019-01-09T11:12:18.610Z,94.26
2019-01-09T11:13:18.588Z,94.31
2019-01-09T11:14:18.585Z,94.57
2019-01-09T11:15:18.561Z,94.57
2019-01-09T11:16:18.553Z,94.37
2019-01-09T11:17:18.556Z,94.06
2019-01-09T11:18:18.530Z,94.41
2019-01-09T11:19:18.515Z,94.37
2019-01-09T11:20:18.508Z,94.57
2019-01-09T11:21:18.501Z,95.09
2019-01-09T11:22:18.526Z,95.20
2019-01-09T11:23:18.475Z,94.78
2019-01-09T11:24:18.468Z,94.37
2019-01-09T11:25:18.450Z,94.89
2019-01-09T11:26:18.445Z,94.16
2019-01-09T11:27:18.447Z,94.37
2019-01-09T11:28:18.435Z,94.37
2019-01-09T11:29:18.413Z,94.57
2019-01-09T11:30:18.395Z,94.68
2019-01-09T11:31:18.386Z,94.68
2019-01-09T11:32:18.379Z,94.26
2019-01-09T11:33:18.390Z,94.78
2019-01-09T11:34:18.353Z,94.47
2019-01-09T11:35:18.340Z,94.57
2019-01-09T11:36:18.326Z,94.68
2019-01-09T11:37:18.320Z,93.95
2019-01-09T11:38:18.326Z,94.37
2019-01-09T11:39:18.294Z,94.47
2019-01-09T11:40:18.281Z,93.95
2019-01-09T11:41:18.271Z,94.26
2019-01-09T11:42:18.261Z,94.37
2019-01-09T11:43:18.274Z,94.37
2019-01-09T11:44:18.253Z,94.89
2019-01-09T11:45:18.228Z,94.68
2019-01-09T11:46:18.265Z,95.09
2019-01-09T11:47:18.207Z,94.68
2019-01-09T11:48:18.224Z,94.99
2019-01-09T11:49:18.201Z,94.37
2019-01-09T11:50:18.195Z,94.47
2019-01-09T11:51:18.156Z,94.26
2019-01-09T11:52:18.155Z,94.57
2019-01-09T11:53:18.151Z,94.57
2019-01-09T11:54:18.134Z,94.37
2019-01-09T11:55:18.114Z,95.09
2019-01-09T11:56:18.100Z,94.78
2019-01-09T11:57:18.093Z,94.57
2019-01-09T11:58:18.138Z,95.20
2019-01-09T11:59:18.073Z,95.30
2019-01-09T12:00:18.196Z,94.99
2019-01-09T12:01:18.045Z,94.57
2019-01-09T12:02:22.227Z,94.22
2019-01-09T12:03:18.049Z,94.26
2019-01-09T12:04:18.018Z,94.68
2019-01-09T12:05:18.004Z,94.43
2019-01-09T12:06:18.001Z,94.57
2019-01-09T12:07:17.990Z,94.37
2019-01-09T12:08:17.968Z,95.05
2019-01-09T12:09:17.980Z,94.78
2019-01-09T12:10:17.950Z,94.57
2019-01-09T12:11:17.943Z,94.32
2019-01-09T12:12:17.923Z,93.85
2019-01-09T12:13:17.915Z,93.95
2019-01-09T12:14:17.926Z,93.70
2019-01-09T12:15:17.891Z,93.39
2019-01-09T12:16:17.891Z,93.49
2019-01-09T12:17:17.895Z,93.23
2019-01-09T12:18:17.861Z,93.39
2019-01-09T12:19:17.874Z,93.43
2019-01-09T12:20:17.856Z,93.18
2019-01-09T12:21:17.885Z,92.55
2019-01-09T12:22:17.814Z,92.60
2019-01-09T12:23:17.819Z,92.66
2019-01-09T12:24:17.846Z,93.07
2019-01-09T12:25:17.777Z,93.29
2019-01-09T12:26:17.771Z,92.86
2019-01-09T12:27:17.762Z,92.24
2019-01-09T12:28:17.750Z,91.93
2019-01-09T12:29:17.749Z,91.72
2019-01-09T12:30:17.723Z,92.39
2019-01-09T12:31:17.711Z,91.83
2019-01-09T12:32:17.727Z,92.03
2019-01-09T12:33:17.696Z,92.55
2019-01-09T12:34:17.695Z,92.55
2019-01-09T12:35:17.674Z,92.66
2019-01-09T12:36:17.659Z,92.76
2019-01-09T12:37:17.645Z,92.24
2019-01-09T12:38:17.662Z,92.35
2019-01-09T12:39:17.641Z,92.76
2019-01-09T12:40:17.631Z,92.35
2019-01-09T12:41:17.603Z,92.45
2019-01-09T12:42:17.596Z,92.24
2019-01-09T12:43:17.586Z,92.14
2019-01-09T12:44:17.675Z,92.14
2019-01-09T12:45:17.566Z,92.24
2019-01-09T12:46:17.544Z,92.35
2019-01-09T12:47:17.531Z,92.14
2019-01-09T12:48:17.520Z,92.24
2019-01-09T12:49:17.540Z,91.62
2019-01-09T12:50:17.505Z,92.03
2019-01-09T12:51:17.486Z,92.18
2019-01-09T12:52:17.485Z,92.14